This is the latest recevied weather packets stored in our database for station/object OE6PLD-13. If no packets are shown the sender has not sent any weather packets the latest 10 day(s).
| Time | Temp. | Humidity | Pressure | Rain* | Wind** | Luminosity | Snow |
|---|---|---|---|---|---|---|---|
| 1777516679 | 0.56° C | 65% | 1018.9 hPa | 0.76 mm | - | 0 W/m² | - |
| 1777516496 | 0.56° C | 65% | 1018.8 hPa | 0.76 mm | - | 0 W/m² | - |
| 1777516312 | 0.56° C | 64% | 1018.7 hPa | 0.76 mm | - | 0 W/m² | - |
| 1777516129 | 0.56° C | 65% | 1018.8 hPa | 0.76 mm | - | 0 W/m² | - |
| 1777515946 | 0.56° C | 65% | 1018.7 hPa | 0.76 mm | - | 0 W/m² | - |
| 1777515762 | 0.56° C | 65% | 1018.9 hPa | 0.76 mm | - | 0 W/m² | - |
| 1777515579 | 0.56° C | 64% | 1018.9 hPa | 0.76 mm | - | 0 W/m² | - |
| 1777515396 | 1.11° C | 64% | 1018.8 hPa | 0.76 mm | - | 0 W/m² | - |
| 1777515212 | 0.56° C | 65% | 1018.7 hPa | 0.76 mm | - | 0 W/m² | - |
| 1777515029 | 1.67° C | 62% | 1018.8 hPa | 0.76 mm | - | 0 W/m² | - |
| 1777514846 | 1.67° C | 62% | 1018.8 hPa | 0.76 mm | - | 0 W/m² | - |
| 1777514662 | 1.11° C | 62% | 1018.9 hPa | 0.76 mm | - | 0 W/m² | - |
| 1777514479 | 1.11° C | 64% | 1019 hPa | 0.76 mm | - | 0 W/m² | - |
| 1777514295 | 1.11° C | 63% | 1019 hPa | 0.76 mm | - | 0 W/m² | - |
| 1777514112 | 1.11° C | 62% | 1018.8 hPa | 0.76 mm | - | 0 W/m² | - |
| 1777513929 | 1.67° C | 59% | 1018.9 hPa | 0.76 mm | - | 0 W/m² | - |
| 1777513746 | 1.67° C | 59% | 1018.8 hPa | 0.76 mm | - | 0 W/m² | - |
| 1777513562 | 1.67° C | 59% | 1018.6 hPa | 0.76 mm | - | 0 W/m² | - |
| 1777513379 | 2.22° C | 58% | 1018.8 hPa | 0.76 mm | - | 0 W/m² | - |
| 1777513195 | 2.78° C | 56% | 1018.8 hPa | 0.76 mm | - | 0 W/m² | - |
| 1777513012 | 2.78° C | 55% | 1018.9 hPa | 0.76 mm | - | 0 W/m² | - |
| 1777512829 | 2.78° C | 55% | 1018.6 hPa | 0.76 mm | - | 0 W/m² | - |
| 1777512645 | 3.33° C | 55% | 1018.7 hPa | 0.76 mm | - | 0 W/m² | - |
| 1777512462 | 3.89° C | 52% | 1018.7 hPa | 0.76 mm | - | 0 W/m² | - |
| 1777512279 | 4.44° C | 50% | 1018.5 hPa | 0.76 mm | - | 0 W/m² | - |
* Rain latest hour (hover to see other rain measurements)
** Current wind speed in m/s (hover to see current wind gust speed)